Time;durP1;ratioP1;P1;durP2;ratioP2;P2;SDS_P1;SDS_P2;PMS_P1;PMS_P2;Temp;Humidity;BMP_temperature;BMP_pressure;BME280_temperature;BME280_humidity;BME280_pressure;Samples;Min_cycle;Max_cycle;Signal;HPM_P1;HPM_P2
2021/03/09 00:00:55;;;;;;;15.35;1.98;;;28.30;94.10;;;;;;6325767;22;20014;-66
2021/03/09 00:03:22;;;;;;;7.82;1.58;;;28.10;96.40;;;;;;6327092;22;19999;-66
2021/03/09 00:05:50;;;;;;;8.50;1.75;;;28.00;98.10;;;;;;6325541;22;20030;-66
2021/03/09 00:08:17;;;;;;;5.55;2.38;;;27.90;98.90;;;;;;6326321;22;20003;-65
2021/03/09 00:10:44;;;;;;;6.35;1.83;;;28.10;99.80;;;;;;6326834;22;20025;-66
2021/03/09 00:13:12;;;;;;;9.13;2.15;;;28.10;99.90;;;;;;6326991;22;20025;-66
2021/03/09 00:15:39;;;;;;;7.70;1.90;;;28.10;99.90;;;;;;6330204;22;20007;-65
2021/03/09 00:18:10;;;;;;;8.85;1.90;;;27.90;99.90;;;;;;6328029;22;20023;-66
2021/03/09 00:20:38;;;;;;;10.07;3.22;;;27.80;99.90;;;;;;6329494;22;20023;-66
2021/03/09 00:23:05;;;;;;;9.00;2.45;;;27.60;99.90;;;;;;6328837;22;20010;-65
2021/03/09 00:25:33;;;;;;;10.40;2.05;;;27.60;99.90;;;;;;6327245;22;20078;-66
2021/03/09 00:28:00;;;;;;;8.38;2.05;;;28.00;99.90;;;;;;6331283;22;20007;-66
2021/03/09 00:30:27;;;;;;;10.07;2.30;;;27.80;99.90;;;;;;6323431;22;19999;-65
2021/03/09 00:32:55;;;;;;;10.23;2.22;;;28.20;99.90;;;;;;6323493;22;20096;-67
2021/03/09 00:35:22;;;;;;;12.15;2.85;;;28.40;99.90;;;;;;6324066;22;20000;-66
2021/03/09 00:37:49;;;;;;;8.95;1.67;;;28.50;99.90;;;;;;6323577;22;20010;-66
2021/03/09 00:40:16;;;;;;;10.23;1.95;;;28.40;99.80;;;;;;6324026;22;19999;-66
2021/03/09 00:42:44;;;;;;;7.45;2.15;;;28.40;99.90;;;;;;6322830;22;20063;-67
2021/03/09 00:45:12;;;;;;;6.57;2.25;;;28.70;99.90;;;;;;6325632;22;20356;-66
2021/03/09 00:47:39;;;;;;;8.65;2.58;;;28.50;99.90;;;;;;6326806;22;20015;-66
2021/03/09 00:50:07;;;;;;;10.13;2.45;;;28.40;99.80;;;;;;6324376;22;20054;-67
2021/03/09 00:52:34;;;;;;;9.73;2.20;;;28.60;99.90;;;;;;6324735;22;20011;-65
2021/03/09 00:55:01;;;;;;;11.38;2.70;;;28.60;99.90;;;;;;6326024;22;20011;-66
2021/03/09 00:57:29;;;;;;;8.68;2.40;;;28.60;99.90;;;;;;6323079;22;20117;-67
2021/03/09 00:59:56;;;;;;;13.90;2.80;;;28.50;99.90;;;;;;6320693;22;20003;-67
2021/03/09 01:02:23;;;;;;;7.38;2.25;;;28.60;99.90;;;;;;6348747;22;20437;-67
2021/03/09 01:04:51;;;;;;;8.10;2.42;;;28.50;99.90;;;;;;6324815;22;19991;-66
2021/03/09 01:07:18;;;;;;;11.40;2.97;;;28.40;99.90;;;;;;6323146;22;20007;-67
2021/03/09 01:09:45;;;;;;;12.25;2.78;;;28.50;99.90;;;;;;6325441;22;20007;-67
2021/03/09 01:12:12;;;;;;;12.55;2.92;;;29.10;99.90;;;;;;6325817;22;20056;-66
2021/03/09 01:14:40;;;;;;;9.70;2.35;;;29.10;99.90;;;;;;6321702;22;20125;-66
2021/03/09 01:17:07;;;;;;;10.23;3.13;;;28.90;99.90;;;;;;6314764;22;19999;-66
2021/03/09 01:19:34;;;;;;;8.73;2.88;;;28.80;99.90;;;;;;6315822;22;20003;-67
2021/03/09 01:22:02;;;;;;;7.63;2.70;;;29.10;99.90;;;;;;6318396;22;20022;-67
2021/03/09 01:24:29;;;;;;;13.77;3.05;;;28.70;99.90;;;;;;6317889;22;20021;-66
2021/03/09 01:26:56;;;;;;;11.68;3.17;;;28.50;99.90;;;;;;6313151;22;20007;-66
2021/03/09 01:29:23;;;;;;;11.43;3.00;;;28.10;99.90;;;;;;6313570;22;20410;-66
2021/03/09 01:31:51;;;;;;;11.32;3.60;;;27.80;99.90;;;;;;6313712;22;20003;-66
2021/03/09 01:34:18;;;;;;;11.07;3.78;;;28.00;99.90;;;;;;6337975;22;20007;-66
2021/03/09 01:36:45;;;;;;;11.75;2.97;;;28.20;99.90;;;;;;6317029;22;20009;-66
2021/03/09 01:39:15;;;;;;;11.50;3.72;;;28.50;99.90;;;;;;6313766;22;20029;-66
2021/03/09 01:41:43;;;;;;;11.80;3.28;;;28.70;99.90;;;;;;6312753;22;19995;-66
2021/03/09 01:44:10;;;;;;;9.30;3.05;;;29.20;99.90;;;;;;6319096;22;20425;-67
2021/03/09 01:46:38;;;;;;;10.13;3.28;;;29.10;99.90;;;;;;6316345;22;20025;-66
2021/03/09 01:49:05;;;;;;;11.30;3.97;;;28.60;99.90;;;;;;6317655;22;20004;-66
2021/03/09 01:51:33;;;;;;;8.80;3.13;;;28.40;99.90;;;;;;6322317;22;20015;-71
2021/03/09 01:54:00;;;;;;;9.80;3.22;;;28.20;99.90;;;;;;6338812;22;20003;-71
2021/03/09 01:56:27;;;;;;;9.40;3.67;;;27.90;99.90;;;;;;6338480;22;20002;-71
2021/03/09 01:58:55;;;;;;;14.52;3.40;;;27.80;99.90;;;;;;6339048;22;19999;-70
2021/03/09 02:01:23;;;;;;;12.82;3.22;;;27.80;99.90;;;;;;6338156;22;20172;-70
2021/03/09 02:03:50;;;;;;;12.70;3.10;;;27.20;99.90;;;;;;6335034;22;20002;-70
2021/03/09 02:06:18;;;;;;;10.75;3.60;;;26.70;99.90;;;;;;6340719;22;20370;-66
2021/03/09 02:08:46;;;;;;;9.45;3.47;;;26.50;99.90;;;;;;6342571;22;20041;-66
2021/03/09 02:11:42;;;;;;;11.13;2.92;;;27.10;99.90;;;;;;6342246;22;20086;-66
2021/03/09 02:14:23;;;;;;;15.85;4.20;;;27.40;99.90;;;;;;6343816;22;20051;-65
2021/03/09 02:17:21;;;;;;;9.80;3.58;;;27.00;99.90;;;;;;6343511;22;20022;-66
2021/03/09 02:20:24;;;;;;;13.18;4.28;;;26.40;99.90;;;;;;6339079;22;19998;-65
2021/03/09 02:23:25;;;;;;;17.88;4.35;;;26.70;99.90;;;;;;6342352;22;20007;-66
2021/03/09 02:26:18;;;;;;;13.85;4.75;;;27.60;99.90;;;;;;6311074;22;20007;-66
2021/03/09 02:29:09;;;;;;;15.20;4.93;;;27.80;99.90;;;;;;6331400;22;20005;-65
2021/03/09 02:31:39;;;;;;;14.25;4.90;;;28.10;99.90;;;;;;6316687;22;20039;-65
2021/03/09 02:34:10;;;;;;;12.95;4.47;;;27.70;99.90;;;;;;6315806;22;20002;-66
2021/03/09 02:36:40;;;;;;;13.02;5.10;;;27.90;99.90;;;;;;6322942;22;20426;-65
2021/03/09 02:39:12;;;;;;;13.15;4.28;;;27.60;99.90;;;;;;6329632;22;20068;-67
2021/03/09 02:41:46;;;;;;;13.07;5.43;;;27.40;99.90;;;;;;6351191;22;19987;-66
2021/03/09 02:44:25;;;;;;;14.90;5.25;;;27.80;99.90;;;;;;6329826;22;19983;-63
2021/03/09 02:46:53;;;;;;;16.25;5.25;;;27.90;99.90;;;;;;6332131;22;19988;-64
2021/03/09 02:49:21;;;;;;;15.63;5.13;;;27.90;99.90;;;;;;6327958;22;20019;-66
2021/03/09 02:51:50;;;;;;;14.82;4.20;;;27.90;99.90;;;;;;6329058;22;20098;-64
2021/03/09 02:54:19;;;;;;;12.73;3.97;;;27.90;99.90;;;;;;6331384;22;19994;-65
2021/03/09 02:56:47;;;;;;;15.68;4.57;;;27.80;99.90;;;;;;6327326;22;20019;-64
2021/03/09 02:59:17;;;;;;;17.02;4.18;;;27.70;99.90;;;;;;6328241;22;20000;-65
2021/03/09 03:01:48;;;;;;;11.95;3.92;;;27.40;99.90;;;;;;6331324;22;19999;-65
2021/03/09 03:04:18;;;;;;;11.13;3.78;;;27.20;99.90;;;;;;6331497;22;20434;-65
2021/03/09 03:06:46;;;;;;;17.67;4.13;;;27.20;99.90;;;;;;6330053;22;20026;-65
2021/03/09 03:09:16;;;;;;;13.63;3.88;;;27.50;99.90;;;;;;6326073;22;20003;-65
2021/03/09 03:11:45;;;;;;;11.95;4.68;;;27.30;99.90;;;;;;6325408;22;19996;-66
2021/03/09 03:14:13;;;;;;;14.65;4.00;;;27.60;99.90;;;;;;6325418;22;20056;-65
2021/03/09 03:16:42;;;;;;;10.40;3.58;;;27.60;99.90;;;;;;6323227;22;20003;-66
2021/03/09 03:19:10;;;;;;;11.98;4.05;;;27.50;99.90;;;;;;6316566;22;20018;-65
2021/03/09 03:21:42;;;;;;;13.32;3.75;;;27.50;99.90;;;;;;6314606;22;20002;-66
2021/03/09 03:24:10;;;;;;;12.60;3.20;;;27.70;99.90;;;;;;6315047;22;19999;-65
2021/03/09 03:26:43;;;;;;;14.95;4.20;;;27.80;99.90;;;;;;6315264;22;19999;-66
2021/03/09 03:29:12;;;;;;;17.53;3.70;;;27.60;99.90;;;;;;6317210;22;20521;-66
2021/03/09 03:31:40;;;;;;;10.52;2.83;;;27.60;99.90;;;;;;6321282;22;19999;-66
2021/03/09 03:34:08;;;;;;;19.38;4.25;;;27.20;99.90;;;;;;6316062;22;20003;-66
2021/03/09 03:36:38;;;;;;;15.50;4.13;;;27.40;99.90;;;;;;6312372;22;20309;-67
2021/03/09 03:39:07;;;;;;;13.32;3.15;;;27.30;99.90;;;;;;6315254;22;20060;-65
2021/03/09 03:41:37;;;;;;;13.52;3.33;;;27.20;99.90;;;;;;6311299;22;20019;-66
2021/03/09 03:44:04;;;;;;;16.90;3.63;;;27.10;99.90;;;;;;6312889;22;20003;-66
2021/03/09 03:46:32;;;;;;;18.40;3.08;;;27.20;99.90;;;;;;6310376;22;20011;-67
2021/03/09 03:48:59;;;;;;;12.00;3.63;;;27.30;99.90;;;;;;6312956;22;20023;-66
2021/03/09 03:51:33;;;;;;;17.80;4.30;;;27.00;99.90;;;;;;6309634;22;20425;-66
2021/03/09 03:54:18;;;;;;;13.15;3.38;;;26.90;99.90;;;;;;6313235;22;20283;-67
2021/03/09 03:57:00;;;;;;;19.92;3.97;;;26.60;99.90;;;;;;6314825;22;20329;-66
2021/03/09 03:59:41;;;;;;;15.40;3.67;;;26.50;99.90;;;;;;6315857;22;20021;-65
2021/03/09 04:02:10;;;;;;;14.45;3.83;;;26.40;99.90;;;;;;6322566;22;20025;-66
2021/03/09 04:04:39;;;;;;;11.95;2.67;;;26.40;99.90;;;;;;6317849;22;19999;-67
2021/03/09 04:07:09;;;;;;;19.17;4.15;;;26.30;99.90;;;;;;6319659;22;20010;-66
2021/03/09 04:09:38;;;;;;;18.35;3.85;;;26.50;99.90;;;;;;6315812;22;20434;-66
2021/03/09 04:12:07;;;;;;;13.85;3.20;;;26.50;99.90;;;;;;6316545;22;20065;-66
2021/03/09 04:14:34;;;;;;;18.08;3.40;;;26.20;99.90;;;;;;6315221;22;20039;-66
2021/03/09 04:17:03;;;;;;;15.88;4.18;;;26.10;99.90;;;;;;6315744;22;20448;-67
2021/03/09 04:19:31;;;;;;;18.23;3.72;;;26.00;99.90;;;;;;6311928;22;20057;-66
2021/03/09 04:22:00;;;;;;;17.48;3.75;;;25.50;99.90;;;;;;6315255;22;20003;-66
2021/03/09 04:24:29;;;;;;;16.63;4.20;;;25.60;99.90;;;;;;6312729;22;19996;-66
2021/03/09 04:26:57;;;;;;;19.52;3.78;;;26.00;99.90;;;;;;6312091;22;19999;-66
2021/03/09 04:29:25;;;;;;;14.13;3.50;;;26.30;99.90;;;;;;6308175;22;20003;-66
2021/03/09 04:31:52;;;;;;;19.13;3.95;;;26.20;99.90;;;;;;6323005;22;19999;-66
2021/03/09 04:34:20;;;;;;;14.13;3.25;;;25.90;99.90;;;;;;6327245;22;20002;-66
2021/03/09 04:36:47;;;;;;;21.48;3.92;;;25.50;99.90;;;;;;6324991;22;20002;-67
2021/03/09 04:39:15;;;;;;;14.75;3.53;;;25.20;99.90;;;;;;6321196;22;19999;-66
2021/03/09 04:41:43;;;;;;;18.73;3.95;;;25.30;99.90;;;;;;6317749;22;20023;-67
2021/03/09 04:44:10;;;;;;;18.67;3.58;;;25.50;99.90;;;;;;6316508;22;20014;-66
2021/03/09 04:46:38;;;;;;;22.63;5.03;;;25.60;99.90;;;;;;6317555;22;20022;-66
2021/03/09 04:49:05;;;;;;;17.25;3.50;;;25.40;99.90;;;;;;6320335;22;20065;-65
2021/03/09 04:51:37;;;;;;;18.73;4.55;;;25.30;99.90;;;;;;6316645;22;20049;-67
2021/03/09 04:54:05;;;;;;;16.13;3.83;;;25.10;99.90;;;;;;6314763;22;20010;-67
2021/03/09 04:56:33;;;;;;;18.08;4.43;;;24.70;99.90;;;;;;6315729;22;20007;-66
2021/03/09 04:59:00;;;;;;;21.55;4.18;;;24.80;99.90;;;;;;6316838;22;20026;-66
2021/03/09 05:01:28;;;;;;;17.17;3.55;;;24.80;99.90;;;;;;6313478;22;19999;-66
2021/03/09 05:03:56;;;;;;;14.95;3.30;;;24.80;99.90;;;;;;6316486;22;20342;-66
2021/03/09 05:06:23;;;;;;;18.67;4.57;;;24.70;99.90;;;;;;6313944;22;20018;-66
2021/03/09 05:08:50;;;;;;;20.90;3.95;;;24.80;99.90;;;;;;6313919;22;20030;-65
2021/03/09 05:11:18;;;;;;;18.10;4.13;;;24.80;99.90;;;;;;6344004;22;20007;-67
2021/03/09 05:13:45;;;;;;;20.13;4.28;;;24.80;99.90;;;;;;6319489;22;20004;-65
2021/03/09 05:16:12;;;;;;;16.83;2.85;;;24.60;99.90;;;;;;6314027;22;20002;-66
2021/03/09 05:18:40;;;;;;;19.52;3.58;;;24.40;99.90;;;;;;6319143;22;20013;-66
2021/03/09 05:21:07;;;;;;;11.77;2.90;;;24.40;99.90;;;;;;6318260;22;20313;-66
2021/03/09 05:23:34;;;;;;;13.95;3.50;;;24.30;99.90;;;;;;6315439;22;20000;-67
2021/03/09 05:26:02;;;;;;;22.77;4.13;;;24.20;99.90;;;;;;6312521;22;20005;-67
2021/03/09 05:28:29;;;;;;;13.38;3.78;;;24.30;99.90;;;;;;6313447;22;20007;-66
2021/03/09 05:30:56;;;;;;;12.43;2.28;;;24.40;99.90;;;;;;6315569;22;20014;-67
2021/03/09 05:33:24;;;;;;;14.50;3.85;;;24.40;99.90;;;;;;6316600;22;20000;-67
2021/03/09 05:35:51;;;;;;;13.38;2.80;;;24.40;99.90;;;;;;6317091;22;20003;-68
2021/03/09 05:38:19;;;;;;;12.10;2.85;;;24.20;99.90;;;;;;6317709;22;20027;-66
2021/03/09 05:40:46;;;;;;;16.00;3.25;;;24.00;99.90;;;;;;6314643;22;20007;-66
2021/03/09 05:43:14;;;;;;;18.88;3.88;;;23.80;99.90;;;;;;6313764;22;20046;-66
2021/03/09 05:45:41;;;;;;;18.23;2.53;;;23.80;99.90;;;;;;6340529;22;20007;-67
2021/03/09 05:48:09;;;;;;;17.90;3.05;;;23.90;99.90;;;;;;6318692;22;20023;-67
2021/03/09 05:50:36;;;;;;;18.40;4.00;;;23.70;99.90;;;;;;6320039;22;20002;-66
2021/03/09 05:53:05;;;;;;;15.35;3.30;;;23.60;99.90;;;;;;6323074;22;20019;-66
2021/03/09 05:55:32;;;;;;;15.02;2.85;;;23.50;99.90;;;;;;6319131;22;20062;-66
2021/03/09 05:57:59;;;;;;;18.52;3.42;;;23.60;99.90;;;;;;6325376;22;20125;-66
2021/03/09 06:00:27;;;;;;;20.55;3.92;;;23.70;99.90;;;;;;6319552;22;20063;-66
2021/03/09 06:02:55;;;;;;;20.92;4.22;;;23.60;99.90;;;;;;6322147;22;20003;-66
2021/03/09 06:05:22;;;;;;;16.08;5.28;;;23.60;99.90;;;;;;6324908;22;20356;-67
2021/03/09 06:07:54;;;;;;;19.67;3.00;;;23.50;99.90;;;;;;6323654;22;20330;-66
2021/03/09 06:10:23;;;;;;;13.73;2.95;;;23.50;99.90;;;;;;6324459;22;20003;-66
2021/03/09 06:12:51;;;;;;;13.52;3.53;;;23.60;99.90;;;;;;6326352;22;20383;-66
2021/03/09 06:15:19;;;;;;;13.90;2.50;;;23.50;99.90;;;;;;6327647;22;20000;-67
2021/03/09 06:17:55;;;;;;;17.48;3.75;;;23.50;99.90;;;;;;6347426;22;20007;-65
2021/03/09 06:20:25;;;;;;;16.67;2.28;;;23.40;99.90;;;;;;6326058;22;19994;-63
2021/03/09 06:22:53;;;;;;;14.10;3.00;;;23.50;99.90;;;;;;6329435;22;20099;-65
2021/03/09 06:25:32;;;;;;;13.57;3.33;;;23.50;99.90;;;;;;6353869;22;20003;-66
2021/03/09 06:28:05;;;;;;;11.45;2.28;;;23.50;99.90;;;;;;6331875;22;20026;-66
2021/03/09 06:30:34;;;;;;;11.35;2.92;;;23.60;99.90;;;;;;6330841;22;20010;-65
2021/03/09 06:33:03;;;;;;;12.48;3.40;;;23.50;99.90;;;;;;6351496;22;20017;-66
2021/03/09 06:35:39;;;;;;;16.10;2.65;;;23.40;99.90;;;;;;6324424;22;20010;-66
2021/03/09 06:38:36;;;;;;;15.32;3.20;;;23.50;99.90;;;;;;6327854;22;19983;-65
2021/03/09 06:41:18;;;;;;;12.75;2.35;;;23.50;99.90;;;;;;6313989;22;20026;-65
2021/03/09 06:44:00;;;;;;;14.88;2.63;;;23.40;99.90;;;;;;6332681;22;20011;-65
2021/03/09 06:46:27;;;;;;;12.73;2.92;;;23.30;99.90;;;;;;6330394;22;20003;-64
2021/03/09 06:49:04;;;;;;;13.55;2.85;;;23.30;99.90;;;;;;6329588;22;20086;-65
2021/03/09 06:51:33;;;;;;;15.15;4.15;;;23.40;99.90;;;;;;6330231;22;20027;-65
2021/03/09 06:54:08;;;;;;;20.50;2.88;;;23.40;99.90;;;;;;6329487;22;20033;-66
2021/03/09 06:56:38;;;;;;;14.60;2.70;;;23.40;99.90;;;;;;6328483;22;20003;-65
2021/03/09 06:59:21;;;;;;;17.10;2.90;;;23.40;99.90;;;;;;6354941;22;20014;-65
2021/03/09 07:02:15;;;;;;;11.63;3.33;;;23.30;99.90;;;;;;6329111;22;20025;-64
2021/03/09 07:04:44;;;;;;;9.98;2.55;;;23.30;99.90;;;;;;6325676;22;20062;-65
2021/03/09 07:07:14;;;;;;;16.88;3.28;;;23.30;99.90;;;;;;6329050;22;20092;-65
2021/03/09 07:09:53;;;;;;;14.00;2.78;;;23.30;99.90;;;;;;6331209;22;20025;-65
2021/03/09 07:12:20;;;;;;;14.23;2.58;;;23.30;99.90;;;;;;6329317;22;20017;-65
2021/03/09 07:14:49;;;;;;;19.85;3.40;;;23.20;99.90;;;;;;6328444;22;20003;-65
2021/03/09 07:17:21;;;;;;;17.35;3.08;;;23.10;99.90;;;;;;6328660;22;19999;-65
2021/03/09 07:19:49;;;;;;;14.32;2.17;;;23.10;99.90;;;;;;6328557;22;19991;-65
2021/03/09 07:22:18;;;;;;;13.20;2.40;;;23.10;99.90;;;;;;6323951;22;20035;-65
2021/03/09 07:25:08;;;;;;;12.60;2.88;;;23.10;99.90;;;;;;6322561;22;19991;-65
2021/03/09 07:27:50;;;;;;;14.98;3.17;;;23.10;99.90;;;;;;6329367;22;20010;-66
2021/03/09 07:30:19;;;;;;;19.00;2.70;;;23.00;99.90;;;;;;6328285;22;19996;-65
2021/03/09 07:32:52;;;;;;;10.27;2.63;;;22.90;99.90;;;;;;6328427;22;20049;-65
2021/03/09 07:35:21;;;;;;;13.45;2.75;;;22.90;99.90;;;;;;6328609;22;19999;-65
2021/03/09 07:37:50;;;;;;;15.52;3.20;;;22.90;99.90;;;;;;6325710;22;20015;-65
2021/03/09 07:40:20;;;;;;;15.35;2.55;;;22.90;99.90;;;;;;6320601;22;20327;-66
2021/03/09 07:42:48;;;;;;;14.20;3.22;;;22.90;99.90;;;;;;6324565;22;19995;-67
2021/03/09 07:45:18;;;;;;;12.13;2.33;;;22.90;99.90;;;;;;6325246;22;19995;-66
2021/03/09 07:50:18;;;;;;;11.38;2.53;;;22.90;99.90;;;;;;6305632;22;20031;-70
2021/03/09 07:53:04;;;;;;;12.85;2.88;;;22.80;99.90;;;;;;6303968;22;20005;-70
2021/03/09 07:55:31;;;;;;;12.52;3.85;;;22.70;99.90;;;;;;6318148;22;20030;-65
2021/03/09 07:58:26;;;;;;;12.25;3.28;;;22.70;99.90;;;;;;6325199;22;20007;-65
2021/03/09 08:00:58;;;;;;;16.70;3.58;;;22.80;99.90;;;;;;6326534;22;19995;-65
2021/03/09 08:03:40;;;;;;;20.63;3.10;;;22.80;99.90;;;;;;6327912;22;19999;-65
2021/03/09 08:06:11;;;;;;;15.48;3.58;;;22.70;99.90;;;;;;6327781;22;20007;-65
2021/03/09 08:08:50;;;;;;;21.42;4.35;;;22.70;99.90;;;;;;6323090;22;20007;-65
2021/03/09 08:11:23;;;;;;;15.05;3.15;;;22.70;99.90;;;;;;6327874;22;20455;-65
2021/03/09 08:14:10;;;;;;;16.80;3.60;;;22.60;99.90;;;;;;6331413;22;20006;-65
2021/03/09 08:16:45;;;;;;;17.08;3.42;;;22.70;99.90;;;;;;6323864;22;20019;-65
2021/03/09 08:19:30;;;;;;;12.85;3.22;;;22.70;99.90;;;;;;6328600;22;20007;-66
2021/03/09 08:22:02;;;;;;;14.90;3.05;;;22.60;99.90;;;;;;6325700;22;20026;-66
2021/03/09 08:24:42;;;;;;;17.83;2.50;;;22.60;99.90;;;;;;6330905;22;19987;-65
2021/03/09 08:27:30;;;;;;;21.80;3.40;;;22.60;99.90;;;;;;6327642;22;19995;-66
2021/03/09 08:30:17;;;;;;;22.30;3.35;;;22.60;99.90;;;;;;6326164;22;19999;-66
2021/03/09 08:32:45;;;;;;;18.05;3.92;;;22.50;99.90;;;;;;6327747;22;20007;-66
2021/03/09 08:35:15;;;;;;;12.55;2.92;;;22.60;99.90;;;;;;6326146;22;20035;-65
2021/03/09 08:37:52;;;;;;;22.95;7.32;;;22.50;99.90;;;;;;6323354;22;20014;-66
2021/03/09 08:40:21;;;;;;;23.73;5.35;;;22.50;99.90;;;;;;6323638;22;19999;-65
2021/03/09 08:43:04;;;;;;;13.80;3.35;;;22.50;99.90;;;;;;6325210;22;20019;-65
2021/03/09 08:46:03;;;;;;;16.60;3.75;;;22.50;99.90;;;;;;6323747;22;20003;-65
2021/03/09 08:48:49;;;;;;;19.05;3.92;;;22.40;99.90;;;;;;6290709;22;20071;-65
2021/03/09 08:51:44;;;;;;;16.13;2.28;;;22.40;99.90;;;;;;6326800;22;20033;-65
2021/03/09 08:54:25;;;;;;;17.38;3.03;;;22.30;99.90;;;;;;6320756;22;20483;-66
2021/03/09 08:56:53;;;;;;;19.83;3.15;;;22.30;99.90;;;;;;6319373;22;20003;-65
2021/03/09 08:59:25;;;;;;;15.98;3.03;;;22.20;99.90;;;;;;6325358;22;19999;-65
2021/03/09 09:01:53;;;;;;;16.80;3.65;;;22.30;99.90;;;;;;6325459;22;20051;-65
2021/03/09 09:04:21;;;;;;;16.42;3.13;;;22.30;99.90;;;;;;6326835;22;20055;-64
2021/03/09 09:06:48;;;;;;;14.18;3.17;;;22.30;99.90;;;;;;6324046;22;19995;-65
2021/03/09 09:09:36;;;;;;;18.60;3.40;;;22.30;99.90;;;;;;6322442;22;20007;-65
2021/03/09 09:12:33;;;;;;;16.92;2.80;;;22.30;99.90;;;;;;6325299;22;20033;-65
2021/03/09 09:15:15;;;;;;;13.27;3.45;;;22.30;99.90;;;;;;6321997;22;19999;-65
2021/03/09 09:17:45;;;;;;;17.75;3.88;;;22.30;99.90;;;;;;6317579;22;20019;-65
2021/03/09 09:20:23;;;;;;;18.08;3.08;;;22.30;99.90;;;;;;6326377;22;19996;-66
2021/03/09 09:22:52;;;;;;;20.02;3.33;;;22.30;99.90;;;;;;6318738;22;20006;-66
2021/03/09 09:25:22;;;;;;;12.82;2.67;;;22.30;99.90;;;;;;6323346;22;20086;-65
2021/03/09 09:27:54;;;;;;;15.02;2.33;;;22.30;99.90;;;;;;6327417;22;20019;-65
2021/03/09 09:30:43;;;;;;;12.38;2.22;;;22.20;99.90;;;;;;6325020;22;20070;-65
2021/03/09 09:33:12;;;;;;;11.45;2.80;;;22.20;99.90;;;;;;6328087;22;20053;-65
2021/03/09 09:35:41;;;;;;;14.13;3.50;;;22.20;99.90;;;;;;6326390;22;19995;-65
2021/03/09 09:38:14;;;;;;;18.60;2.80;;;22.20;99.90;;;;;;6326230;22;20082;-65
2021/03/09 09:40:47;;;;;;;16.13;3.28;;;22.30;99.90;;;;;;6325368;22;20003;-66
2021/03/09 09:43:20;;;;;;;15.68;2.75;;;22.30;99.90;;;;;;6320409;22;19995;-65
2021/03/09 09:46:07;;;;;;;20.63;4.57;;;22.30;99.90;;;;;;6321713;22;20003;-66
2021/03/09 09:48:41;;;;;;;12.75;2.97;;;22.30;99.90;;;;;;6311005;22;20011;-66
2021/03/09 09:51:15;;;;;;;;;;;22.30;99.90;;;;;;6317215;22;20003;-66
2021/03/09 09:53:45;;;;;;;18.55;4.00;;;22.20;99.90;;;;;;6311244;22;19906;-65
2021/03/09 09:56:24;;;;;;;15.88;4.00;;;22.20;99.90;;;;;;6312018;22;20040;-66
2021/03/09 09:58:52;;;;;;;15.45;2.80;;;22.20;99.90;;;;;;6312058;22;20014;-66
2021/03/09 10:01:23;;;;;;;12.93;2.60;;;22.20;99.90;;;;;;6313319;22;20124;-65
2021/03/09 10:04:04;;;;;;;15.98;3.25;;;22.20;99.90;;;;;;6316869;22;20364;-66
2021/03/09 10:06:51;;;;;;;14.77;2.97;;;22.20;99.90;;;;;;6311949;22;20011;-65
2021/03/09 10:09:25;;;;;;;17.02;3.15;;;22.20;99.90;;;;;;6313338;22;20384;-66
2021/03/09 10:11:53;;;;;;;;;;;22.20;99.90;;;;;;6312664;22;20003;-66
2021/03/09 10:14:24;;;;;;;15.50;3.08;;;22.20;99.90;;;;;;6313501;22;19898;-65
2021/03/09 10:16:53;;;;;;;17.27;2.85;;;22.20;99.90;;;;;;6312686;22;20001;-66
2021/03/09 10:19:22;;;;;;;14.88;2.75;;;22.20;99.90;;;;;;6309625;22;20077;-65
2021/03/09 10:21:54;;;;;;;13.88;2.70;;;22.20;99.90;;;;;;6309178;22;20003;-66
2021/03/09 10:24:22;;;;;;;20.05;3.38;;;22.20;99.90;;;;;;6311762;22;20000;-68
2021/03/09 10:26:51;;;;;;;16.50;3.00;;;22.20;99.90;;;;;;6312049;22;20002;-66
2021/03/09 10:29:24;;;;;;;18.20;3.70;;;22.20;99.90;;;;;;6310619;22;20020;-66
2021/03/09 10:31:55;;;;;;;16.75;2.97;;;22.20;99.90;;;;;;6311522;22;20372;-65
2021/03/09 10:34:39;;;;;;;15.65;2.70;;;22.20;99.90;;;;;;6313484;22;19995;-66
2021/03/09 10:37:11;;;;;;;16.17;2.80;;;22.30;99.90;;;;;;6310348;22;20330;-65
2021/03/09 10:39:52;;;;;;;17.15;2.78;;;22.20;99.90;;;;;;6311517;22;20027;-65
2021/03/09 10:42:31;;;;;;;17.38;2.88;;;22.30;99.90;;;;;;6310914;22;20330;-65
2021/03/09 10:45:18;;;;;;;12.80;2.72;;;22.30;99.90;;;;;;6310841;22;20430;-66
2021/03/09 10:47:55;;;;;;;14.48;3.60;;;22.20;99.90;;;;;;6313148;22;19999;-66
2021/03/09 10:50:27;;;;;;;14.75;2.90;;;22.20;99.90;;;;;;6322742;22;20155;-65
2021/03/09 10:52:55;;;;;;;13.98;2.60;;;22.20;99.90;;;;;;6322930;22;20000;-65
2021/03/09 10:55:23;;;;;;;16.23;2.42;;;22.20;99.90;;;;;;6317541;22;20002;-66
2021/03/09 10:57:52;;;;;;;16.27;3.92;;;22.10;99.90;;;;;;6321285;22;20000;-65
2021/03/09 11:00:22;;;;;;;20.58;3.00;;;22.10;99.90;;;;;;6320082;22;19999;-66
2021/03/09 11:02:50;;;;;;;21.60;3.60;;;22.00;99.90;;;;;;6324840;22;20021;-65
2021/03/09 11:05:17;;;;;;;18.67;4.13;;;21.90;99.90;;;;;;6320535;22;20010;-66
2021/03/09 11:07:45;;;;;;;14.98;3.50;;;21.70;99.90;;;;;;6322241;22;20011;-65
2021/03/09 11:10:14;;;;;;;11.13;2.55;;;21.70;99.90;;;;;;6321492;22;20003;-65
2021/03/09 11:12:41;;;;;;;13.52;3.53;;;21.70;99.90;;;;;;6326439;22;19995;-65
2021/03/09 11:15:09;;;;;;;12.68;2.55;;;21.80;99.90;;;;;;6321156;22;20007;-65
2021/03/09 11:17:37;;;;;;;14.98;2.80;;;21.80;99.90;;;;;;6318397;22;20003;-65
2021/03/09 11:20:06;;;;;;;20.00;3.95;;;21.80;99.90;;;;;;6321349;22;20003;-66
2021/03/09 11:22:34;;;;;;;16.77;3.83;;;21.80;99.90;;;;;;6321995;22;20009;-65
2021/03/09 11:25:01;;;;;;;17.20;3.00;;;21.80;99.90;;;;;;6321067;22;20078;-65
2021/03/09 11:27:28;;;;;;;13.77;2.45;;;21.90;99.90;;;;;;6318885;22;20039;-66
2021/03/09 11:29:56;;;;;;;16.42;1.92;;;21.90;99.90;;;;;;6325595;22;20011;-65
2021/03/09 11:32:23;;;;;;;16.80;2.90;;;21.90;99.90;;;;;;6321719;22;20003;-65
2021/03/09 11:34:50;;;;;;;12.60;2.58;;;21.80;99.90;;;;;;6319724;22;20052;-65
2021/03/09 11:37:18;;;;;;;11.43;2.38;;;21.80;99.90;;;;;;6318074;22;20033;-65
2021/03/09 11:39:45;;;;;;;17.35;2.42;;;21.80;99.90;;;;;;6319922;22;20006;-64
2021/03/09 11:42:12;;;;;;;15.55;3.17;;;21.70;99.90;;;;;;6319326;22;20000;-65
2021/03/09 11:44:39;;;;;;;18.58;2.17;;;21.80;99.90;;;;;;6320747;22;20000;-64
2021/03/09 11:47:08;;;;;;;13.73;2.78;;;21.80;99.90;;;;;;6320737;22;20003;-66
2021/03/09 11:49:35;;;;;;;13.65;2.50;;;21.80;99.90;;;;;;6322848;22;20014;-65
2021/03/09 11:52:02;;;;;;;11.10;2.65;;;21.80;99.90;;;;;;6319849;22;20030;-65
2021/03/09 11:54:29;;;;;;;12.05;2.42;;;21.80;99.90;;;;;;6321727;22;20057;-65
2021/03/09 11:56:57;;;;;;;11.63;1.85;;;21.80;99.90;;;;;;6319013;22;20006;-65
2021/03/09 11:59:24;;;;;;;11.43;2.00;;;21.80;99.90;;;;;;6320222;22;20483;-65
2021/03/09 12:01:52;;;;;;;14.60;2.28;;;21.90;99.90;;;;;;6319279;22;20374;-66
2021/03/09 12:04:19;;;;;;;10.95;2.15;;;21.90;99.90;;;;;;6319162;22;20005;-66
2021/03/09 12:06:46;;;;;;;13.05;1.65;;;21.90;99.90;;;;;;6320172;22;20006;-66
2021/03/09 12:09:14;;;;;;;11.00;2.33;;;21.90;99.90;;;;;;6321532;22;20003;-66
2021/03/09 12:11:42;;;;;;;9.18;1.58;;;21.90;99.90;;;;;;6317701;22;20449;-66
2021/03/09 12:14:09;;;;;;;12.57;1.85;;;21.90;99.90;;;;;;6317526;22;20156;-66
2021/03/09 12:16:36;;;;;;;12.15;2.38;;;22.00;99.90;;;;;;6322425;22;20004;-67
2021/03/09 12:19:03;;;;;;;13.63;2.28;;;21.90;99.90;;;;;;6320778;22;19996;-65
2021/03/09 12:21:31;;;;;;;13.23;1.95;;;21.90;99.90;;;;;;6317452;22;20082;-65
2021/03/09 12:23:58;;;;;;;9.85;1.70;;;21.90;99.90;;;;;;6316446;22;20000;-65
2021/03/09 12:26:25;;;;;;;11.45;1.88;;;21.90;99.90;;;;;;6313932;22;20482;-65
2021/03/09 12:28:53;;;;;;;11.60;2.13;;;21.90;99.90;;;;;;6315347;22;20007;-66
2021/03/09 12:31:20;;;;;;;10.63;2.42;;;22.00;99.90;;;;;;6318935;22;20006;-65
2021/03/09 12:33:48;;;;;;;11.60;1.80;;;21.90;99.90;;;;;;6320147;22;19999;-65
2021/03/09 12:36:15;;;;;;;14.05;2.08;;;21.90;99.90;;;;;;6323100;22;20003;-65
2021/03/09 12:38:42;;;;;;;15.32;2.40;;;21.90;99.90;;;;;;6320909;22;19996;-67
2021/03/09 12:41:10;;;;;;;13.18;1.60;;;21.90;99.90;;;;;;6318612;22;19999;-67
2021/03/09 12:43:37;;;;;;;9.10;1.98;;;21.90;99.90;;;;;;6318817;22;20000;-66
2021/03/09 12:46:05;;;;;;;12.38;2.17;;;22.00;99.90;;;;;;6319455;22;19999;-66
2021/03/09 12:48:33;;;;;;;10.65;1.65;;;21.90;99.90;;;;;;6322699;22;20020;-66
2021/03/09 12:51:00;;;;;;;10.93;1.90;;;21.90;99.90;;;;;;6317311;22;20445;-66
2021/03/09 12:53:27;;;;;;;13.00;2.20;;;21.90;99.90;;;;;;6318342;22;20006;-65
2021/03/09 12:55:55;;;;;;;10.45;1.77;;;21.90;99.90;;;;;;6315030;22;19999;-66
2021/03/09 12:58:22;;;;;;;10.68;1.95;;;21.90;99.90;;;;;;6317830;22;20003;-66
2021/03/09 13:00:49;;;;;;;16.50;2.63;;;21.90;99.90;;;;;;6320889;22;20006;-67